createdAt,value
2022-09-28T00:01:42.925Z,100.00
2022-09-28T00:04:45.002Z,100.00
2022-09-28T00:07:47.071Z,100.00
2022-09-28T00:10:56.152Z,100.00
2022-09-28T00:14:03.770Z,100.00
2022-09-28T00:17:05.882Z,100.00
2022-09-28T00:20:08.305Z,100.00
2022-09-28T00:23:10.299Z,100.00
2022-09-28T00:26:12.284Z,100.00
2022-09-28T00:29:27.104Z,100.00
2022-09-28T00:32:30.077Z,100.00
2022-09-28T00:35:32.129Z,100.00
2022-09-28T00:38:35.420Z,100.00
2022-09-28T00:41:37.530Z,100.00
2022-09-28T00:44:54.110Z,100.00
2022-09-28T00:47:58.809Z,100.00
2022-09-28T00:51:06.500Z,100.00
2022-09-28T00:54:09.479Z,100.00
2022-09-28T00:57:11.959Z,100.00
2022-09-28T01:00:14.531Z,100.00
2022-09-28T01:03:17.588Z,100.00
2022-09-28T01:06:27.813Z,100.00
2022-09-28T01:09:31.192Z,100.00
2022-09-28T01:12:33.217Z,100.00
2022-09-28T01:15:43.867Z,100.00
2022-09-28T01:19:05.380Z,100.00
2022-09-28T01:22:08.524Z,100.00
2022-09-28T01:25:40.268Z,100.00
2022-09-28T01:28:44.674Z,100.00
2022-09-28T01:31:53.244Z,100.00
2022-09-28T01:35:09.925Z,100.00
2022-09-28T01:38:30.638Z,100.00
2022-09-28T01:41:36.978Z,100.00
2022-09-28T01:44:42.706Z,100.00
2022-09-28T01:47:47.501Z,100.00
2022-09-28T01:50:56.787Z,100.00
2022-09-28T01:54:07.589Z,100.00
2022-09-28T01:57:15.911Z,100.00
2022-09-28T02:00:20.013Z,100.00
2022-09-28T02:03:35.070Z,100.00
2022-09-28T02:06:46.439Z,100.00
2022-09-28T02:09:58.969Z,100.00
2022-09-28T02:13:14.627Z,100.00
2022-09-28T02:16:37.462Z,100.00
2022-09-28T02:19:41.499Z,100.00
2022-09-28T02:22:55.932Z,100.00
2022-09-28T02:26:06.845Z,100.00
2022-09-28T02:29:09.081Z,100.00
2022-09-28T02:32:11.447Z,100.00
2022-09-28T02:35:17.779Z,100.00
2022-09-28T02:38:19.786Z,100.00
2022-09-28T02:41:55.966Z,100.00
2022-09-28T02:45:48.409Z,100.00
2022-09-28T02:49:20.813Z,100.00
2022-09-28T02:52:43.060Z,100.00
2022-09-28T02:56:30.039Z,100.00
2022-09-28T02:59:40.187Z,100.00
2022-09-28T03:03:06.161Z,100.00
2022-09-28T03:06:20.526Z,100.00
2022-09-28T03:09:34.625Z,100.00
2022-09-28T03:12:38.105Z,100.00
2022-09-28T03:15:46.455Z,100.00
2022-09-28T03:18:50.759Z,100.00
2022-09-28T03:21:53.303Z,100.00
2022-09-28T03:24:55.293Z,100.00
2022-09-28T03:27:57.413Z,100.00
2022-09-28T03:31:00.239Z,100.00
2022-09-28T03:34:02.481Z,100.00
2022-09-28T03:37:04.550Z,100.00
2022-09-28T03:40:07.197Z,100.00
2022-09-28T03:43:10.162Z,100.00
2022-09-28T03:46:12.440Z,100.00
2022-09-28T03:49:19.201Z,100.00
2022-09-28T03:52:21.168Z,100.00
2022-09-28T03:55:23.209Z,100.00
2022-09-28T03:58:28.009Z,100.00
2022-09-28T04:01:30.180Z,100.00
2022-09-28T04:04:33.117Z,100.00
2022-09-28T04:07:35.123Z,100.00
2022-09-28T04:10:37.017Z,100.00
2022-09-28T04:13:39.511Z,100.00
2022-09-28T04:16:44.523Z,100.00
2022-09-28T04:19:49.990Z,100.00
2022-09-28T04:23:01.545Z,100.00
2022-09-28T04:26:05.871Z,100.00
2022-09-28T04:29:16.176Z,100.00
2022-09-28T04:32:28.547Z,100.00
2022-09-28T04:35:30.527Z,100.00
2022-09-28T04:38:51.767Z,100.00
2022-09-28T04:41:56.240Z,100.00
2022-09-28T04:44:59.057Z,100.00
2022-09-28T04:48:01.546Z,100.00
2022-09-28T04:51:25.667Z,100.00
2022-09-28T04:54:27.612Z,100.00
2022-09-28T04:57:29.560Z,100.00
2022-09-28T05:00:35.332Z,100.00
2022-09-28T05:03:59.942Z,100.00
2022-09-28T05:07:11.121Z,100.00
2022-09-28T05:10:13.550Z,100.00
2022-09-28T05:13:18.801Z,100.00
2022-09-28T05:16:21.017Z,100.00
2022-09-28T05:19:45.520Z,100.00
2022-09-28T05:22:48.241Z,100.00
2022-09-28T05:25:51.122Z,100.00
2022-09-28T05:28:59.870Z,100.00
2022-09-28T05:32:20.578Z,100.00
2022-09-28T05:35:47.865Z,100.00
2022-09-28T05:38:51.915Z,100.00
2022-09-28T05:41:55.149Z,100.00
2022-09-28T05:45:00.332Z,100.00
2022-09-28T05:48:02.445Z,100.00
2022-09-28T05:51:04.635Z,100.00
2022-09-28T05:54:06.668Z,100.00
2022-09-28T05:57:12.497Z,100.00
2022-09-28T06:00:14.603Z,100.00
2022-09-28T06:03:22.356Z,100.00
2022-09-28T06:06:24.448Z,100.00
2022-09-28T06:09:26.567Z,100.00
2022-09-28T06:12:54.665Z,100.00
2022-09-28T06:15:56.725Z,100.00
2022-09-28T06:18:58.856Z,100.00
2022-09-28T06:22:16.903Z,100.00
2022-09-28T06:25:30.259Z,100.00
2022-09-28T06:28:32.339Z,100.00
2022-09-28T06:31:34.341Z,100.00
2022-09-28T06:34:36.358Z,100.00
2022-09-28T06:37:38.249Z,100.00
2022-09-28T06:40:40.550Z,100.00
2022-09-28T06:43:42.539Z,100.00
2022-09-28T06:46:47.223Z,100.00
2022-09-28T06:50:12.416Z,100.00
2022-09-28T06:53:40.773Z,100.00
2022-09-28T06:57:06.449Z,100.00
2022-09-28T07:00:09.087Z,100.00
2022-09-28T07:03:14.561Z,100.00
2022-09-28T07:06:48.186Z,100.00
2022-09-28T07:10:11.478Z,100.00
2022-09-28T07:14:01.136Z,100.00
2022-09-28T07:17:12.294Z,100.00
2022-09-28T07:20:19.401Z,100.00
2022-09-28T07:23:23.510Z,100.00
2022-09-28T07:26:51.579Z,100.00
2022-09-28T07:30:08.852Z,100.00
2022-09-28T07:33:51.384Z,100.00
2022-09-28T07:37:05.785Z,100.00
2022-09-28T07:40:27.138Z,100.00
2022-09-28T07:43:29.184Z,100.00
2022-09-28T07:46:33.001Z,100.00
2022-09-28T07:49:40.047Z,100.00
2022-09-28T07:53:08.512Z,100.00
2022-09-28T07:56:31.181Z,100.00
2022-09-28T07:59:53.885Z,100.00
2022-09-28T08:03:04.669Z,100.00
2022-09-28T08:06:11.325Z,100.00
2022-09-28T08:09:13.543Z,100.00
2022-09-28T08:12:33.947Z,100.00
2022-09-28T08:16:08.580Z,100.00
2022-09-28T08:19:19.754Z,100.00
2022-09-28T08:22:22.811Z,100.00
2022-09-28T08:25:27.350Z,100.00
2022-09-28T08:28:29.441Z,100.00
2022-09-28T08:31:36.549Z,100.00
2022-09-28T08:34:46.228Z,100.00
2022-09-28T08:38:07.773Z,100.00
2022-09-28T08:42:01.276Z,100.00
2022-09-28T08:45:36.599Z,100.00
2022-09-28T08:49:13.767Z,100.00
2022-09-28T08:52:51.539Z,100.00
2022-09-28T08:56:25.110Z,100.00
2022-09-28T08:59:37.961Z,100.00
2022-09-28T09:02:42.913Z,100.00
2022-09-28T09:06:27.060Z,100.00
2022-09-28T09:09:57.273Z,100.00
2022-09-28T09:13:21.726Z,100.00
2022-09-28T09:16:39.246Z,100.00
2022-09-28T09:20:05.772Z,100.00
2022-09-28T09:23:37.580Z,100.00
2022-09-28T09:26:41.246Z,100.00
2022-09-28T09:30:01.415Z,100.00
2022-09-28T09:33:23.222Z,100.00
2022-09-28T09:37:05.975Z,100.00
2022-09-28T09:40:37.346Z,100.00
2022-09-28T09:44:04.279Z,100.00
2022-09-28T09:47:50.837Z,100.00
2022-09-28T09:51:04.437Z,100.00
2022-09-28T09:54:24.344Z,100.00
2022-09-28T09:57:40.736Z,100.00
2022-09-28T10:01:09.432Z,100.00
2022-09-28T10:04:39.702Z,100.00
2022-09-28T10:08:09.249Z,100.00
2022-09-28T10:11:22.143Z,100.00
2022-09-28T10:14:28.697Z,100.00
2022-09-28T10:17:37.742Z,100.00
2022-09-28T10:21:03.224Z,100.00
2022-09-28T10:24:36.059Z,100.00
2022-09-28T10:27:45.597Z,100.00
2022-09-28T10:30:48.159Z,100.00
2022-09-28T10:33:53.660Z,100.00
2022-09-28T10:37:03.462Z,100.00
2022-09-28T10:40:43.619Z,100.00
2022-09-28T10:44:06.927Z,100.00
2022-09-28T10:47:21.289Z,100.00
2022-09-28T10:50:26.765Z,100.00
2022-09-28T10:53:40.180Z,100.00
2022-09-28T10:56:42.733Z,100.00
2022-09-28T10:59:51.999Z,100.00
2022-09-28T11:02:54.033Z,100.00
2022-09-28T11:06:03.309Z,100.00
2022-09-28T11:09:27.085Z,100.00
2022-09-28T11:12:44.421Z,100.00
2022-09-28T11:15:47.709Z,100.00
2022-09-28T11:19:20.872Z,100.00
2022-09-28T11:22:30.338Z,100.00
2022-09-28T11:25:37.270Z,100.00
2022-09-28T11:28:42.239Z,100.00
2022-09-28T11:32:01.191Z,100.00
2022-09-28T11:35:03.555Z,100.00
2022-09-28T11:38:18.968Z,100.00
2022-09-28T11:42:03.855Z,100.00
2022-09-28T11:45:25.485Z,100.00
2022-09-28T11:48:41.095Z,100.00
2022-09-28T11:51:46.200Z,100.00
2022-09-28T11:54:59.606Z,100.00
2022-09-28T11:58:22.396Z,100.00
2022-09-28T12:01:36.278Z,100.00
2022-09-28T12:04:57.031Z,100.00
2022-09-28T12:08:28.211Z,100.00
2022-09-28T12:11:47.941Z,100.00
2022-09-28T12:14:55.687Z,100.00
2022-09-28T12:18:06.307Z,100.00
2022-09-28T12:21:14.292Z,100.00
2022-09-28T12:24:25.069Z,100.00
2022-09-28T12:27:43.954Z,100.00
2022-09-28T12:30:49.383Z,100.00
2022-09-28T12:33:52.323Z,100.00
2022-09-28T12:37:08.676Z,100.00
2022-09-28T12:40:37.382Z,100.00
2022-09-28T12:44:07.024Z,100.00
2022-09-28T12:47:46.430Z,100.00
2022-09-28T12:51:25.262Z,100.00
2022-09-28T12:54:50.707Z,100.00
2022-09-28T12:58:15.420Z,100.00
2022-09-28T13:01:29.212Z,100.00
2022-09-28T13:05:13.008Z,100.00
2022-09-28T13:08:34.229Z,100.00
2022-09-28T13:11:48.307Z,100.00
2022-09-28T13:15:26.435Z,100.00
2022-09-28T13:18:43.460Z,100.00
2022-09-28T13:22:01.491Z,100.00
2022-09-28T13:25:11.641Z,100.00
2022-09-28T13:28:15.986Z,25.97
2022-09-28T13:31:22.419Z,29.17
2022-09-28T13:34:36.521Z,29.75
2022-09-28T13:37:38.479Z,28.75
2022-09-28T13:41:04.827Z,29.99
2022-09-28T13:44:22.117Z,32.64
2022-09-28T13:48:03.037Z,36.49
2022-09-28T13:51:27.235Z,33.67
2022-09-28T13:54:41.388Z,34.89
2022-09-28T13:58:06.277Z,35.18
2022-09-28T14:01:13.025Z,37.63
2022-09-28T14:04:21.067Z,37.28
2022-09-28T14:07:35.227Z,35.65
2022-09-28T14:10:56.479Z,38.11
2022-09-28T14:14:02.285Z,38.14
2022-09-28T14:17:19.177Z,37.47
2022-09-28T14:20:25.139Z,38.36
2022-09-28T14:23:36.141Z,38.83
2022-09-28T14:27:09.212Z,39.49
2022-09-28T14:30:13.855Z,41.37
2022-09-28T14:33:22.586Z,41.88
2022-09-28T14:36:54.062Z,42.45
2022-09-28T14:40:14.862Z,42.78
2022-09-28T14:43:34.906Z,43.89
2022-09-28T14:46:39.271Z,46.24
2022-09-28T14:49:45.878Z,46.68
2022-09-28T14:52:52.992Z,46.36
2022-09-28T14:55:58.598Z,47.15
2022-09-28T14:59:01.200Z,49.32
2022-09-28T15:02:15.662Z,49.70
2022-09-28T15:05:24.408Z,49.97
2022-09-28T15:08:37.700Z,47.62
2022-09-28T15:11:40.332Z,48.64
2022-09-28T15:15:04.302Z,47.76
2022-09-28T15:18:19.752Z,49.50
2022-09-28T15:21:22.529Z,48.52
2022-09-28T15:24:35.072Z,48.48
2022-09-28T15:27:38.824Z,48.50
2022-09-28T15:30:40.788Z,49.32
2022-09-28T15:34:00.981Z,51.14
2022-09-28T15:37:09.215Z,54.10
2022-09-28T15:40:17.672Z,54.84
2022-09-28T15:43:29.180Z,53.55
2022-09-28T15:46:39.366Z,51.83
2022-09-28T15:49:58.743Z,50.37
2022-09-28T15:53:05.584Z,51.27
2022-09-28T15:56:10.423Z,51.16
2022-09-28T15:59:15.126Z,53.08
2022-09-28T16:02:20.953Z,55.18
2022-09-28T16:05:37.025Z,56.64
2022-09-28T16:08:40.363Z,56.24
2022-09-28T16:11:42.409Z,55.53
2022-09-28T16:14:52.038Z,55.44
2022-09-28T16:17:56.947Z,55.28
2022-09-28T16:21:25.231Z,55.49
2022-09-28T16:24:31.053Z,56.06
2022-09-28T16:27:44.641Z,56.91
2022-09-28T16:31:12.885Z,58.13
2022-09-28T16:34:20.509Z,59.69
2022-09-28T16:37:34.205Z,61.15
2022-09-28T16:40:40.605Z,61.61
2022-09-28T16:43:42.702Z,60.92
2022-09-28T16:46:45.676Z,61.50
2022-09-28T16:49:48.572Z,61.80
2022-09-28T16:53:19.319Z,61.34
2022-09-28T16:56:21.853Z,61.43
2022-09-28T16:59:23.782Z,61.83
2022-09-28T17:05:48.666Z,63.91
2022-09-28T17:08:50.572Z,63.97
2022-09-28T17:11:57.105Z,64.81
2022-09-28T17:15:00.523Z,65.11
2022-09-28T17:18:02.858Z,65.78
2022-09-28T17:21:07.109Z,65.41
2022-09-28T17:24:09.137Z,66.04
2022-09-28T17:27:16.591Z,66.75
2022-09-28T17:30:22.338Z,67.15
2022-09-28T17:33:29.891Z,68.07
2022-09-28T17:36:31.854Z,67.06
2022-09-28T17:39:33.806Z,66.05
2022-09-28T17:42:35.855Z,68.24
2022-09-28T17:45:41.195Z,69.13
2022-09-28T17:48:46.315Z,69.72
2022-09-28T17:51:50.292Z,70.28
2022-09-28T17:54:52.260Z,70.08
2022-09-28T17:57:54.987Z,69.03
2022-09-28T18:00:57.227Z,68.45
2022-09-28T18:04:04.147Z,68.90
2022-09-28T18:07:06.196Z,67.80
2022-09-28T18:10:12.580Z,68.41
2022-09-28T18:13:15.151Z,66.70
2022-09-28T18:16:19.792Z,65.76
2022-09-28T18:19:21.828Z,66.15
2022-09-28T18:22:23.852Z,66.23
2022-09-28T18:25:25.865Z,65.91
2022-09-28T18:28:27.887Z,66.60
2022-09-28T18:31:30.007Z,67.90
2022-09-28T18:34:35.785Z,68.15
2022-09-28T18:37:40.070Z,67.40
2022-09-28T18:40:42.315Z,67.00
2022-09-28T18:43:50.719Z,65.99
2022-09-28T18:46:52.864Z,65.91
2022-09-28T18:49:55.055Z,64.58
2022-09-28T18:53:11.536Z,64.99
2022-09-28T18:56:18.457Z,65.28
2022-09-28T18:59:20.594Z,66.02
2022-09-28T19:02:22.740Z,66.34
2022-09-28T19:05:24.880Z,67.14
2022-09-28T19:08:27.847Z,67.49
2022-09-28T19:11:30.018Z,66.92
2022-09-28T19:14:31.900Z,66.99
2022-09-28T19:17:33.899Z,66.63
2022-09-28T19:20:36.061Z,66.44
2022-09-28T19:23:39.306Z,66.13
2022-09-28T19:26:42.118Z,66.03
2022-09-28T19:29:44.199Z,67.12
2022-09-28T19:32:46.184Z,68.08
2022-09-28T19:35:58.857Z,67.66
2022-09-28T19:39:04.591Z,68.32
2022-09-28T19:42:06.829Z,68.36
2022-09-28T19:45:09.283Z,69.06
2022-09-28T19:48:11.318Z,69.81
2022-09-28T19:51:13.323Z,70.22
2022-09-28T19:54:15.920Z,69.58
2022-09-28T19:57:19.700Z,69.11
2022-09-28T20:00:22.406Z,68.67
2022-09-28T20:03:26.084Z,68.01
2022-09-28T20:06:28.859Z,67.55
2022-09-28T20:09:32.443Z,66.94
2022-09-28T20:12:34.795Z,67.29
2022-09-28T20:15:36.966Z,66.88
2022-09-28T20:18:40.441Z,67.65
2022-09-28T20:21:42.380Z,67.28
2022-09-28T20:24:44.367Z,66.93
2022-09-28T20:27:46.309Z,66.60
2022-09-28T20:30:48.331Z,67.04
2022-09-28T20:33:51.458Z,67.22
2022-09-28T20:36:53.430Z,67.22
2022-09-28T20:39:55.455Z,67.82
2022-09-28T20:42:57.530Z,69.15
2022-09-28T20:45:59.482Z,70.00
2022-09-28T20:49:01.699Z,71.03
2022-09-28T20:52:03.921Z,71.13
2022-09-28T20:55:06.298Z,71.48
2022-09-28T20:58:08.252Z,71.25
2022-09-28T21:01:17.357Z,71.99
2022-09-28T21:04:19.831Z,72.65
2022-09-28T21:07:21.996Z,72.49
2022-09-28T21:10:24.015Z,73.21
2022-09-28T21:13:26.915Z,73.36
2022-09-28T21:16:32.403Z,73.20
2022-09-28T21:19:34.336Z,73.48
2022-09-28T21:22:36.307Z,73.54
2022-09-28T21:25:38.269Z,72.92
2022-09-28T21:28:40.808Z,72.77
2022-09-28T21:31:46.844Z,72.73
2022-09-28T21:34:50.577Z,73.16
2022-09-28T21:37:52.592Z,73.06
2022-09-28T21:40:57.054Z,73.69
2022-09-28T21:43:59.106Z,73.79
2022-09-28T21:47:01.078Z,73.44
2022-09-28T21:50:03.387Z,73.13
2022-09-28T21:53:05.364Z,72.54
2022-09-28T21:56:10.189Z,71.70
2022-09-28T21:59:12.131Z,70.98
2022-09-28T22:02:14.162Z,71.02
2022-09-28T22:05:16.181Z,70.32
2022-09-28T22:08:19.112Z,70.10
2022-09-28T22:11:23.921Z,70.07
2022-09-28T22:14:27.452Z,69.96
2022-09-28T22:17:29.527Z,69.95
2022-09-28T22:20:31.557Z,69.68
2022-09-28T22:23:34.031Z,70.14
2022-09-28T22:26:37.446Z,70.58
2022-09-28T22:29:39.393Z,71.25
2022-09-28T22:32:41.288Z,72.38
2022-09-28T22:35:43.232Z,72.99
2022-09-28T22:38:45.967Z,73.93
2022-09-28T22:41:48.424Z,74.78
2022-09-28T22:44:50.442Z,75.67
2022-09-28T22:47:52.488Z,76.07
2022-09-28T22:50:54.394Z,76.76
2022-09-28T22:53:57.055Z,77.13
2022-09-28T22:56:59.064Z,77.50
2022-09-28T23:00:01.344Z,78.00
2022-09-28T23:03:03.430Z,78.93
2022-09-28T23:06:05.640Z,79.64
2022-09-28T23:09:07.594Z,80.31
2022-09-28T23:12:09.523Z,81.14
2022-09-28T23:15:11.565Z,81.73
2022-09-28T23:18:13.576Z,82.39
2022-09-28T23:21:18.342Z,83.60
2022-09-28T23:24:20.309Z,83.84
2022-09-28T23:27:22.282Z,83.99
2022-09-28T23:30:24.957Z,84.79
2022-09-28T23:33:26.927Z,84.66
2022-09-28T23:36:29.610Z,85.31
2022-09-28T23:39:31.626Z,85.31
2022-09-28T23:42:35.083Z,85.56
2022-09-28T23:45:37.104Z,86.41
2022-09-28T23:48:39.042Z,86.21
2022-09-28T23:51:41.002Z,86.41
2022-09-28T23:54:42.976Z,86.56
2022-09-28T23:57:45.818Z,87.42
